sensor_id;sensor_type;location;lat;lon;timestamp;P1;durP1;ratioP1;P2;durP2;ratioP2
20381;SDS011;10350;51.280;12.400;2023-07-22T00:00:52;94.20;;;89.10;;
20381;SDS011;10350;51.280;12.400;2023-07-22T00:03:19;93.72;;;88.75;;
20381;SDS011;10350;51.280;12.400;2023-07-22T00:05:45;94.20;;;89.15;;
20381;SDS011;10350;51.280;12.400;2023-07-22T00:08:11;94.10;;;89.07;;
20381;SDS011;10350;51.280;12.400;2023-07-22T00:10:43;95.97;;;90.47;;
20381;SDS011;10350;51.280;12.400;2023-07-22T00:13:09;97.35;;;92.15;;
20381;SDS011;10350;51.280;12.400;2023-07-22T00:15:35;90.63;;;85.82;;
20381;SDS011;10350;51.280;12.400;2023-07-22T00:18:01;98.43;;;92.95;;
20381;SDS011;10350;51.280;12.400;2023-07-22T00:20:27;92.95;;;87.95;;
20381;SDS011;10350;51.280;12.400;2023-07-22T00:22:54;94.93;;;89.78;;
20381;SDS011;10350;51.280;12.400;2023-07-22T00:25:20;96.22;;;91.03;;
20381;SDS011;10350;51.280;12.400;2023-07-22T00:27:47;98.13;;;92.80;;
20381;SDS011;10350;51.280;12.400;2023-07-22T00:30:13;98.75;;;93.40;;
20381;SDS011;10350;51.280;12.400;2023-07-22T00:32:39;97.85;;;92.55;;
20381;SDS011;10350;51.280;12.400;2023-07-22T00:35:06;96.82;;;91.63;;
20381;SDS011;10350;51.280;12.400;2023-07-22T00:37:32;102.20;;;96.30;;
20381;SDS011;10350;51.280;12.400;2023-07-22T00:39:58;102.57;;;97.00;;
20381;SDS011;10350;51.280;12.400;2023-07-22T00:42:24;97.20;;;91.88;;
20381;SDS011;10350;51.280;12.400;2023-07-22T00:44:50;98.70;;;93.03;;
20381;SDS011;10350;51.280;12.400;2023-07-22T00:47:16;99.18;;;93.80;;
20381;SDS011;10350;51.280;12.400;2023-07-22T00:49:43;98.35;;;93.07;;
20381;SDS011;10350;51.280;12.400;2023-07-22T00:52:09;99.80;;;94.43;;
20381;SDS011;10350;51.280;12.400;2023-07-22T00:54:35;100.05;;;94.57;;
20381;SDS011;10350;51.280;12.400;2023-07-22T00:57:01;99.65;;;94.28;;
20381;SDS011;10350;51.280;12.400;2023-07-22T00:59:28;100.15;;;94.78;;
20381;SDS011;10350;51.280;12.400;2023-07-22T01:01:54;103.15;;;97.55;;
20381;SDS011;10350;51.280;12.400;2023-07-22T01:04:20;102.40;;;96.57;;
20381;SDS011;10350;51.280;12.400;2023-07-22T01:06:47;97.38;;;92.07;;
20381;SDS011;10350;51.280;12.400;2023-07-22T01:09:13;103.47;;;97.90;;
20381;SDS011;10350;51.280;12.400;2023-07-22T01:11:39;103.22;;;97.75;;
20381;SDS011;10350;51.280;12.400;2023-07-22T01:14:05;104.50;;;98.82;;
20381;SDS011;10350;51.280;12.400;2023-07-22T01:16:33;101.00;;;95.50;;
20381;SDS011;10350;51.280;12.400;2023-07-22T01:18:59;99.90;;;94.43;;
20381;SDS011;10350;51.280;12.400;2023-07-22T01:21:25;104.93;;;99.25;;
20381;SDS011;10350;51.280;12.400;2023-07-22T01:23:51;98.75;;;93.05;;
20381;SDS011;10350;51.280;12.400;2023-07-22T01:26:17;98.75;;;93.38;;
20381;SDS011;10350;51.280;12.400;2023-07-22T01:28:43;103.70;;;98.10;;
20381;SDS011;10350;51.280;12.400;2023-07-22T01:31:09;99.53;;;94.13;;
20381;SDS011;10350;51.280;12.400;2023-07-22T01:33:36;106.63;;;100.43;;
20381;SDS011;10350;51.280;12.400;2023-07-22T01:36:03;99.00;;;93.55;;
20381;SDS011;10350;51.280;12.400;2023-07-22T01:38:29;93.72;;;88.63;;
20381;SDS011;10350;51.280;12.400;2023-07-22T01:40:56;91.68;;;86.70;;
20381;SDS011;10350;51.280;12.400;2023-07-22T01:43:22;100.90;;;95.28;;
20381;SDS011;10350;51.280;12.400;2023-07-22T01:45:48;94.32;;;89.22;;
20381;SDS011;10350;51.280;12.400;2023-07-22T01:48:14;95.95;;;90.68;;
20381;SDS011;10350;51.280;12.400;2023-07-22T01:50:41;96.05;;;90.55;;
20381;SDS011;10350;51.280;12.400;2023-07-22T01:53:07;99.78;;;94.28;;
20381;SDS011;10350;51.280;12.400;2023-07-22T01:55:33;98.53;;;93.05;;
20381;SDS011;10350;51.280;12.400;2023-07-22T01:57:59;96.18;;;90.97;;
20381;SDS011;10350;51.280;12.400;2023-07-22T02:00:25;99.65;;;93.95;;
20381;SDS011;10350;51.280;12.400;2023-07-22T02:02:51;100.05;;;93.82;;
20381;SDS011;10350;51.280;12.400;2023-07-22T02:05:17;99.55;;;94.07;;
20381;SDS011;10350;51.280;12.400;2023-07-22T02:07:43;97.68;;;92.40;;
20381;SDS011;10350;51.280;12.400;2023-07-22T02:10:09;99.13;;;93.50;;
20381;SDS011;10350;51.280;12.400;2023-07-22T02:12:35;102.63;;;96.68;;
20381;SDS011;10350;51.280;12.400;2023-07-22T02:15:02;98.95;;;93.43;;
20381;SDS011;10350;51.280;12.400;2023-07-22T02:17:28;97.75;;;92.40;;
20381;SDS011;10350;51.280;12.400;2023-07-22T02:19:55;96.10;;;90.45;;
20381;SDS011;10350;51.280;12.400;2023-07-22T02:22:21;94.50;;;89.32;;
20381;SDS011;10350;51.280;12.400;2023-07-22T02:24:47;98.97;;;93.68;;
20381;SDS011;10350;51.280;12.400;2023-07-22T02:27:13;100.55;;;95.10;;
20381;SDS011;10350;51.280;12.400;2023-07-22T02:29:39;95.90;;;90.53;;
20381;SDS011;10350;51.280;12.400;2023-07-22T02:32:06;92.82;;;87.78;;
20381;SDS011;10350;51.280;12.400;2023-07-22T02:34:32;100.03;;;94.63;;
20381;SDS011;10350;51.280;12.400;2023-07-22T02:36:58;98.78;;;93.40;;
20381;SDS011;10350;51.280;12.400;2023-07-22T02:39:24;96.07;;;90.82;;
20381;SDS011;10350;51.280;12.400;2023-07-22T02:41:50;93.68;;;88.28;;
20381;SDS011;10350;51.280;12.400;2023-07-22T02:44:16;94.15;;;88.97;;
20381;SDS011;10350;51.280;12.400;2023-07-22T02:46:42;92.03;;;86.85;;
20381;SDS011;10350;51.280;12.400;2023-07-22T02:49:08;91.47;;;86.53;;
20381;SDS011;10350;51.280;12.400;2023-07-22T02:51:34;89.72;;;84.15;;
20381;SDS011;10350;51.280;12.400;2023-07-22T02:54:00;94.18;;;89.13;;
20381;SDS011;10350;51.280;12.400;2023-07-22T02:56:26;92.70;;;87.50;;
20381;SDS011;10350;51.280;12.400;2023-07-22T02:58:52;91.00;;;86.03;;
20381;SDS011;10350;51.280;12.400;2023-07-22T03:01:18;89.80;;;84.85;;
20381;SDS011;10350;51.280;12.400;2023-07-22T03:03:44;84.72;;;80.07;;
20381;SDS011;10350;51.280;12.400;2023-07-22T03:06:11;87.88;;;82.97;;
20381;SDS011;10350;51.280;12.400;2023-07-22T03:08:37;84.45;;;79.80;;
20381;SDS011;10350;51.280;12.400;2023-07-22T03:11:03;83.82;;;78.82;;
20381;SDS011;10350;51.280;12.400;2023-07-22T03:13:29;81.47;;;77.00;;
20381;SDS011;10350;51.280;12.400;2023-07-22T03:15:56;80.80;;;75.88;;
20381;SDS011;10350;51.280;12.400;2023-07-22T03:18:22;75.65;;;71.40;;
20381;SDS011;10350;51.280;12.400;2023-07-22T03:20:48;75.40;;;71.28;;
20381;SDS011;10350;51.280;12.400;2023-07-22T03:23:14;77.75;;;73.53;;
20381;SDS011;10350;51.280;12.400;2023-07-22T03:25:40;77.53;;;73.25;;
20381;SDS011;10350;51.280;12.400;2023-07-22T03:28:06;75.60;;;71.45;;
20381;SDS011;10350;51.280;12.400;2023-07-22T03:30:33;71.53;;;67.60;;
20381;SDS011;10350;51.280;12.400;2023-07-22T03:32:59;73.68;;;69.55;;
20381;SDS011;10350;51.280;12.400;2023-07-22T03:35:26;71.63;;;67.55;;
20381;SDS011;10350;51.280;12.400;2023-07-22T03:37:52;73.75;;;69.65;;
20381;SDS011;10350;51.280;12.400;2023-07-22T03:40:18;74.15;;;70.00;;
20381;SDS011;10350;51.280;12.400;2023-07-22T03:42:51;75.47;;;71.10;;
20381;SDS011;10350;51.280;12.400;2023-07-22T03:45:18;71.57;;;67.57;;
20381;SDS011;10350;51.280;12.400;2023-07-22T03:47:44;72.35;;;68.30;;
20381;SDS011;10350;51.280;12.400;2023-07-22T03:50:11;80.05;;;75.47;;
20381;SDS011;10350;51.280;12.400;2023-07-22T03:52:37;81.70;;;77.15;;
20381;SDS011;10350;51.280;12.400;2023-07-22T03:55:03;81.25;;;76.70;;
20381;SDS011;10350;51.280;12.400;2023-07-22T03:57:30;85.18;;;80.38;;
20381;SDS011;10350;51.280;12.400;2023-07-22T03:59:56;87.25;;;82.43;;
20381;SDS011;10350;51.280;12.400;2023-07-22T04:02:22;83.57;;;79.03;;
20381;SDS011;10350;51.280;12.400;2023-07-22T04:04:49;82.75;;;78.22;;
20381;SDS011;10350;51.280;12.400;2023-07-22T04:07:15;92.53;;;87.28;;
20381;SDS011;10350;51.280;12.400;2023-07-22T04:09:41;87.10;;;82.40;;
20381;SDS011;10350;51.280;12.400;2023-07-22T04:12:08;88.85;;;83.82;;
20381;SDS011;10350;51.280;12.400;2023-07-22T04:14:34;89.97;;;84.93;;
20381;SDS011;10350;51.280;12.400;2023-07-22T04:17:00;91.30;;;86.28;;
20381;SDS011;10350;51.280;12.400;2023-07-22T04:19:26;90.00;;;85.15;;
20381;SDS011;10350;51.280;12.400;2023-07-22T04:21:52;85.95;;;81.32;;
20381;SDS011;10350;51.280;12.400;2023-07-22T04:24:19;91.93;;;86.90;;
20381;SDS011;10350;51.280;12.400;2023-07-22T04:26:45;90.22;;;85.20;;
20381;SDS011;10350;51.280;12.400;2023-07-22T04:29:11;90.15;;;85.32;;
20381;SDS011;10350;51.280;12.400;2023-07-22T04:31:38;90.47;;;85.53;;
20381;SDS011;10350;51.280;12.400;2023-07-22T04:34:04;90.10;;;85.20;;
20381;SDS011;10350;51.280;12.400;2023-07-22T04:36:33;92.45;;;87.35;;
20381;SDS011;10350;51.280;12.400;2023-07-22T04:38:59;92.25;;;86.80;;
20381;SDS011;10350;51.280;12.400;2023-07-22T04:41:25;92.63;;;87.53;;
20381;SDS011;10350;51.280;12.400;2023-07-22T04:43:51;93.85;;;88.35;;
20381;SDS011;10350;51.280;12.400;2023-07-22T04:46:17;94.93;;;89.50;;
20381;SDS011;10350;51.280;12.400;2023-07-22T04:48:43;93.70;;;88.50;;
20381;SDS011;10350;51.280;12.400;2023-07-22T04:51:09;95.90;;;90.68;;
20381;SDS011;10350;51.280;12.400;2023-07-22T04:53:35;93.43;;;88.25;;
20381;SDS011;10350;51.280;12.400;2023-07-22T04:56:01;93.13;;;87.82;;
20381;SDS011;10350;51.280;12.400;2023-07-22T04:58:27;90.78;;;85.78;;
20381;SDS011;10350;51.280;12.400;2023-07-22T05:00:53;95.55;;;90.13;;
20381;SDS011;10350;51.280;12.400;2023-07-22T05:03:19;93.70;;;87.72;;
20381;SDS011;10350;51.280;12.400;2023-07-22T05:05:45;91.68;;;86.60;;
20381;SDS011;10350;51.280;12.400;2023-07-22T05:08:11;89.10;;;84.03;;
20381;SDS011;10350;51.280;12.400;2023-07-22T05:10:37;87.07;;;82.18;;
20381;SDS011;10350;51.280;12.400;2023-07-22T05:13:03;86.70;;;81.78;;
20381;SDS011;10350;51.280;12.400;2023-07-22T05:15:29;90.13;;;85.18;;
20381;SDS011;10350;51.280;12.400;2023-07-22T05:17:55;86.50;;;81.65;;
20381;SDS011;10350;51.280;12.400;2023-07-22T05:20:21;83.38;;;78.80;;
20381;SDS011;10350;51.280;12.400;2023-07-22T05:22:48;92.20;;;86.60;;
20381;SDS011;10350;51.280;12.400;2023-07-22T05:25:14;95.47;;;90.03;;
20381;SDS011;10350;51.280;12.400;2023-07-22T05:27:40;97.57;;;92.15;;
20381;SDS011;10350;51.280;12.400;2023-07-22T05:30:06;98.95;;;93.43;;
20381;SDS011;10350;51.280;12.400;2023-07-22T05:32:33;91.35;;;86.25;;
20381;SDS011;10350;51.280;12.400;2023-07-22T05:34:59;97.50;;;92.18;;
20381;SDS011;10350;51.280;12.400;2023-07-22T05:37:26;100.43;;;94.93;;
20381;SDS011;10350;51.280;12.400;2023-07-22T05:39:52;101.30;;;95.63;;
20381;SDS011;10350;51.280;12.400;2023-07-22T05:42:18;97.60;;;92.20;;
20381;SDS011;10350;51.280;12.400;2023-07-22T05:44:44;105.40;;;99.53;;
20381;SDS011;10350;51.280;12.400;2023-07-22T05:47:10;109.13;;;103.30;;
20381;SDS011;10350;51.280;12.400;2023-07-22T05:49:36;114.72;;;108.07;;
20381;SDS011;10350;51.280;12.400;2023-07-22T05:52:02;113.28;;;107.18;;
20381;SDS011;10350;51.280;12.400;2023-07-22T05:54:28;107.25;;;101.40;;
20381;SDS011;10350;51.280;12.400;2023-07-22T05:56:54;116.45;;;109.75;;
20381;SDS011;10350;51.280;12.400;2023-07-22T05:59:20;109.63;;;103.47;;
20381;SDS011;10350;51.280;12.400;2023-07-22T06:01:46;111.32;;;105.18;;
20381;SDS011;10350;51.280;12.400;2023-07-22T06:04:12;102.53;;;96.78;;
20381;SDS011;10350;51.280;12.400;2023-07-22T06:06:38;105.95;;;100.13;;
20381;SDS011;10350;51.280;12.400;2023-07-22T06:09:04;115.40;;;109.15;;
20381;SDS011;10350;51.280;12.400;2023-07-22T06:11:30;120.15;;;113.45;;
20381;SDS011;10350;51.280;12.400;2023-07-22T06:13:56;112.63;;;106.45;;
20381;SDS011;10350;51.280;12.400;2023-07-22T06:16:22;115.95;;;109.60;;
20381;SDS011;10350;51.280;12.400;2023-07-22T06:18:48;123.53;;;116.72;;
20381;SDS011;10350;51.280;12.400;2023-07-22T06:21:14;131.70;;;124.40;;
20381;SDS011;10350;51.280;12.400;2023-07-22T06:23:41;134.23;;;126.65;;
20381;SDS011;10350;51.280;12.400;2023-07-22T06:26:07;139.15;;;131.30;;
20381;SDS011;10350;51.280;12.400;2023-07-22T06:28:33;142.13;;;134.32;;
20381;SDS011;10350;51.280;12.400;2023-07-22T06:30:59;138.57;;;130.90;;
20381;SDS011;10350;51.280;12.400;2023-07-22T06:33:25;145.38;;;137.10;;
20381;SDS011;10350;51.280;12.400;2023-07-22T06:35:51;144.55;;;136.55;;
20381;SDS011;10350;51.280;12.400;2023-07-22T06:38:17;148.90;;;140.68;;
20381;SDS011;10350;51.280;12.400;2023-07-22T06:40:43;143.35;;;135.43;;
20381;SDS011;10350;51.280;12.400;2023-07-22T06:43:09;152.80;;;144.32;;
20381;SDS011;10350;51.280;12.400;2023-07-22T06:45:35;150.90;;;142.30;;
20381;SDS011;10350;51.280;12.400;2023-07-22T06:48:01;148.90;;;140.68;;
20381;SDS011;10350;51.280;12.400;2023-07-22T06:50:28;143.43;;;135.52;;
20381;SDS011;10350;51.280;12.400;2023-07-22T06:52:54;152.90;;;144.35;;
20381;SDS011;10350;51.280;12.400;2023-07-22T06:55:20;149.13;;;140.88;;
20381;SDS011;10350;51.280;12.400;2023-07-22T06:57:48;151.45;;;142.80;;
20381;SDS011;10350;51.280;12.400;2023-07-22T07:00:14;132.02;;;124.50;;
20381;SDS011;10350;51.280;12.400;2023-07-22T07:02:40;132.75;;;125.45;;
20381;SDS011;10350;51.280;12.400;2023-07-22T07:05:06;139.60;;;131.93;;
20381;SDS011;10350;51.280;12.400;2023-07-22T07:07:32;140.70;;;133.00;;
20381;SDS011;10350;51.280;12.400;2023-07-22T07:09:58;153.38;;;145.00;;
20381;SDS011;10350;51.280;12.400;2023-07-22T07:12:24;160.48;;;151.73;;
20381;SDS011;10350;51.280;12.400;2023-07-22T07:14:50;163.32;;;154.32;;
20381;SDS011;10350;51.280;12.400;2023-07-22T07:17:17;156.77;;;148.10;;
20381;SDS011;10350;51.280;12.400;2023-07-22T07:19:43;163.50;;;154.50;;
20381;SDS011;10350;51.280;12.400;2023-07-22T07:22:09;167.77;;;158.60;;
20381;SDS011;10350;51.280;12.400;2023-07-22T07:24:35;164.85;;;155.75;;
20381;SDS011;10350;51.280;12.400;2023-07-22T07:27:01;165.07;;;156.07;;
20381;SDS011;10350;51.280;12.400;2023-07-22T07:29:27;163.55;;;154.65;;
20381;SDS011;10350;51.280;12.400;2023-07-22T07:31:53;162.48;;;153.57;;
20381;SDS011;10350;51.280;12.400;2023-07-22T07:34:19;163.50;;;154.38;;
20381;SDS011;10350;51.280;12.400;2023-07-22T07:36:45;170.95;;;161.52;;
20381;SDS011;10350;51.280;12.400;2023-07-22T07:39:12;150.73;;;142.55;;
20381;SDS011;10350;51.280;12.400;2023-07-22T07:41:38;140.05;;;132.25;;
20381;SDS011;10350;51.280;12.400;2023-07-22T07:44:04;136.45;;;129.10;;
20381;SDS011;10350;51.280;12.400;2023-07-22T07:46:30;145.65;;;137.65;;
20381;SDS011;10350;51.280;12.400;2023-07-22T07:48:57;155.10;;;146.65;;
20381;SDS011;10350;51.280;12.400;2023-07-22T07:56:18;162.65;;;153.82;;
20381;SDS011;10350;51.280;12.400;2023-07-22T07:58:45;161.13;;;152.40;;
20381;SDS011;10350;51.280;12.400;2023-07-22T08:01:11;159.27;;;150.65;;
20381;SDS011;10350;51.280;12.400;2023-07-22T08:03:38;168.80;;;159.55;;
20381;SDS011;10350;51.280;12.400;2023-07-22T08:06:05;163.25;;;154.23;;
20381;SDS011;10350;51.280;12.400;2023-07-22T08:08:31;167.47;;;158.37;;
20381;SDS011;10350;51.280;12.400;2023-07-22T08:10:58;160.38;;;151.60;;
20381;SDS011;10350;51.280;12.400;2023-07-22T08:13:24;165.70;;;156.73;;
20381;SDS011;10350;51.280;12.400;2023-07-22T08:15:51;163.10;;;154.10;;
20381;SDS011;10350;51.280;12.400;2023-07-22T08:18:17;166.63;;;157.50;;
20381;SDS011;10350;51.280;12.400;2023-07-22T08:20:43;163.35;;;154.50;;
20381;SDS011;10350;51.280;12.400;2023-07-22T08:23:12;157.57;;;148.95;;
20381;SDS011;10350;51.280;12.400;2023-07-22T08:25:38;158.90;;;150.10;;
20381;SDS011;10350;51.280;12.400;2023-07-22T08:28:04;157.90;;;149.30;;
20381;SDS011;10350;51.280;12.400;2023-07-22T08:30:30;158.18;;;149.55;;
20381;SDS011;10350;51.280;12.400;2023-07-22T08:32:56;151.15;;;142.93;;
20381;SDS011;10350;51.280;12.400;2023-07-22T08:35:22;159.98;;;150.95;;
20381;SDS011;10350;51.280;12.400;2023-07-22T08:37:51;159.88;;;151.18;;
20381;SDS011;10350;51.280;12.400;2023-07-22T08:40:18;161.77;;;152.98;;
20381;SDS011;10350;51.280;12.400;2023-07-22T08:42:44;160.20;;;151.50;;
20381;SDS011;10350;51.280;12.400;2023-07-22T08:45:11;162.15;;;153.30;;
20381;SDS011;10350;51.280;12.400;2023-07-22T08:47:46;158.52;;;149.98;;
20381;SDS011;10350;51.280;12.400;2023-07-22T08:50:18;156.30;;;147.85;;
20381;SDS011;10350;51.280;12.400;2023-07-22T08:52:46;148.50;;;140.40;;
20381;SDS011;10350;51.280;12.400;2023-07-22T08:55:12;150.48;;;142.27;;
20381;SDS011;10350;51.280;12.400;2023-07-22T08:57:38;158.73;;;149.93;;
20381;SDS011;10350;51.280;12.400;2023-07-22T09:00:05;150.15;;;142.02;;
20381;SDS011;10350;51.280;12.400;2023-07-22T09:02:32;142.77;;;135.00;;
20381;SDS011;10350;51.280;12.400;2023-07-22T09:04:58;159.02;;;150.40;;
20381;SDS011;10350;51.280;12.400;2023-07-22T09:07:24;148.68;;;140.50;;
20381;SDS011;10350;51.280;12.400;2023-07-22T09:09:51;149.40;;;141.27;;
20381;SDS011;10350;51.280;12.400;2023-07-22T09:12:17;156.57;;;147.98;;
20381;SDS011;10350;51.280;12.400;2023-07-22T09:14:46;152.52;;;144.18;;
20381;SDS011;10350;51.280;12.400;2023-07-22T09:17:12;145.13;;;137.32;;
20381;SDS011;10350;51.280;12.400;2023-07-22T09:19:38;142.18;;;134.43;;
20381;SDS011;10350;51.280;12.400;2023-07-22T09:22:04;137.75;;;130.30;;
20381;SDS011;10350;51.280;12.400;2023-07-22T09:24:30;148.57;;;140.48;;
20381;SDS011;10350;51.280;12.400;2023-07-22T09:26:57;137.05;;;129.57;;
20381;SDS011;10350;51.280;12.400;2023-07-22T09:29:33;141.30;;;133.60;;
20381;SDS011;10350;51.280;12.400;2023-07-22T09:31:59;140.25;;;132.65;;
20381;SDS011;10350;51.280;12.400;2023-07-22T09:34:25;142.43;;;134.75;;
20381;SDS011;10350;51.280;12.400;2023-07-22T09:36:55;136.73;;;129.40;;
20381;SDS011;10350;51.280;12.400;2023-07-22T09:39:22;141.43;;;133.88;;
20381;SDS011;10350;51.280;12.400;2023-07-22T09:41:48;133.18;;;126.00;;
20381;SDS011;10350;51.280;12.400;2023-07-22T09:44:14;125.68;;;118.63;;
20381;SDS011;10350;51.280;12.400;2023-07-22T09:46:40;125.53;;;118.78;;
20381;SDS011;10350;51.280;12.400;2023-07-22T09:49:09;127.13;;;119.93;;
20381;SDS011;10350;51.280;12.400;2023-07-22T09:51:36;128.40;;;121.47;;
20381;SDS011;10350;51.280;12.400;2023-07-22T09:54:03;125.05;;;118.35;;
20381;SDS011;10350;51.280;12.400;2023-07-22T09:56:29;138.73;;;131.25;;
20381;SDS011;10350;51.280;12.400;2023-07-22T09:58:57;128.70;;;121.82;;
20381;SDS011;10350;51.280;12.400;2023-07-22T10:01:24;131.75;;;124.72;;
20381;SDS011;10350;51.280;12.400;2023-07-22T10:03:53;125.80;;;118.93;;
20381;SDS011;10350;51.280;12.400;2023-07-22T10:06:28;132.82;;;125.63;;
20381;SDS011;10350;51.280;12.400;2023-07-22T10:09:04;127.00;;;120.28;;
20381;SDS011;10350;51.280;12.400;2023-07-22T10:11:33;142.40;;;134.73;;
20381;SDS011;10350;51.280;12.400;2023-07-22T10:13:59;133.60;;;126.38;;
20381;SDS011;10350;51.280;12.400;2023-07-22T10:16:26;139.15;;;131.65;;
20381;SDS011;10350;51.280;12.400;2023-07-22T10:18:53;142.73;;;135.05;;
20381;SDS011;10350;51.280;12.400;2023-07-22T10:21:19;149.70;;;141.50;;
20381;SDS011;10350;51.280;12.400;2023-07-22T10:23:46;152.75;;;144.57;;
20381;SDS011;10350;51.280;12.400;2023-07-22T10:26:13;144.43;;;136.70;;
20381;SDS011;10350;51.280;12.400;2023-07-22T10:28:40;142.63;;;134.95;;
20381;SDS011;10350;51.280;12.400;2023-07-22T10:31:07;144.88;;;137.05;;
20381;SDS011;10350;51.280;12.400;2023-07-22T10:33:34;142.25;;;134.50;;
20381;SDS011;10350;51.280;12.400;2023-07-22T10:38:29;143.85;;;136.13;;
20381;SDS011;10350;51.280;12.400;2023-07-22T10:40:56;141.37;;;133.73;;
20381;SDS011;10350;51.280;12.400;2023-07-22T10:43:32;136.27;;;129.05;;
20381;SDS011;10350;51.280;12.400;2023-07-22T10:46:01;139.32;;;131.82;;
20381;SDS011;10350;51.280;12.400;2023-07-22T10:48:34;142.27;;;134.43;;
20381;SDS011;10350;51.280;12.400;2023-07-22T10:51:10;136.80;;;129.43;;
20381;SDS011;10350;51.280;12.400;2023-07-22T10:53:43;138.88;;;131.43;;
20381;SDS011;10350;51.280;12.400;2023-07-22T11:01:44;135.05;;;127.75;;
20381;SDS011;10350;51.280;12.400;2023-07-22T11:04:23;126.10;;;119.30;;
20381;SDS011;10350;51.280;12.400;2023-07-22T11:06:56;125.18;;;118.47;;
20381;SDS011;10350;51.280;12.400;2023-07-22T11:11:56;130.00;;;123.10;;
20381;SDS011;10350;51.280;12.400;2023-07-22T11:14:22;133.77;;;126.55;;
20381;SDS011;10350;51.280;12.400;2023-07-22T11:16:48;134.90;;;127.60;;
20381;SDS011;10350;51.280;12.400;2023-07-22T11:19:19;135.00;;;127.68;;
20381;SDS011;10350;51.280;12.400;2023-07-22T11:21:46;139.75;;;132.32;;
20381;SDS011;10350;51.280;12.400;2023-07-22T11:24:12;134.35;;;127.03;;
20381;SDS011;10350;51.280;12.400;2023-07-22T11:26:41;127.22;;;120.40;;
20381;SDS011;10350;51.280;12.400;2023-07-22T11:29:08;128.50;;;121.63;;
20381;SDS011;10350;51.280;12.400;2023-07-22T11:31:35;127.57;;;120.60;;
20381;SDS011;10350;51.280;12.400;2023-07-22T11:34:08;132.05;;;124.70;;
20381;SDS011;10350;51.280;12.400;2023-07-22T11:36:34;127.65;;;120.85;;
20381;SDS011;10350;51.280;12.400;2023-07-22T11:39:07;125.70;;;118.95;;
20381;SDS011;10350;51.280;12.400;2023-07-22T11:41:33;131.60;;;124.57;;
20381;SDS011;10350;51.280;12.400;2023-07-22T11:44:00;116.35;;;110.05;;
20381;SDS011;10350;51.280;12.400;2023-07-22T11:46:26;126.82;;;119.72;;
20381;SDS011;10350;51.280;12.400;2023-07-22T11:48:53;130.68;;;123.70;;
20381;SDS011;10350;51.280;12.400;2023-07-22T11:51:20;130.77;;;123.80;;
20381;SDS011;10350;51.280;12.400;2023-07-22T11:53:50;123.75;;;117.15;;
20381;SDS011;10350;51.280;12.400;2023-07-22T11:56:23;122.65;;;116.10;;
20381;SDS011;10350;51.280;12.400;2023-07-22T11:58:50;126.05;;;119.22;;
20381;SDS011;10350;51.280;12.400;2023-07-22T12:01:16;134.40;;;127.00;;
20381;SDS011;10350;51.280;12.400;2023-07-22T12:03:42;122.15;;;115.60;;
20381;SDS011;10350;51.280;12.400;2023-07-22T12:06:08;121.95;;;115.45;;
20381;SDS011;10350;51.280;12.400;2023-07-22T12:08:35;117.93;;;111.25;;
20381;SDS011;10350;51.280;12.400;2023-07-22T12:11:01;137.32;;;130.00;;
20381;SDS011;10350;51.280;12.400;2023-07-22T12:13:29;134.38;;;127.05;;
20381;SDS011;10350;51.280;12.400;2023-07-22T12:16:01;137.85;;;130.48;;
20381;SDS011;10350;51.280;12.400;2023-07-22T12:18:28;129.13;;;122.18;;
20381;SDS011;10350;51.280;12.400;2023-07-22T12:21:06;130.57;;;123.60;;
20381;SDS011;10350;51.280;12.400;2023-07-22T12:23:32;137.05;;;129.60;;
20381;SDS011;10350;51.280;12.400;2023-07-22T12:25:58;137.38;;;129.98;;
20381;SDS011;10350;51.280;12.400;2023-07-22T12:28:24;130.48;;;123.47;;
20381;SDS011;10350;51.280;12.400;2023-07-22T12:30:50;129.85;;;122.85;;
20381;SDS011;10350;51.280;12.400;2023-07-22T12:33:16;128.93;;;122.03;;
20381;SDS011;10350;51.280;12.400;2023-07-22T12:35:42;122.35;;;115.82;;
20381;SDS011;10350;51.280;12.400;2023-07-22T12:38:08;131.65;;;124.57;;
20381;SDS011;10350;51.280;12.400;2023-07-22T12:40:34;137.98;;;130.57;;
20381;SDS011;10350;51.280;12.400;2023-07-22T12:43:00;126.75;;;119.93;;
20381;SDS011;10350;51.280;12.400;2023-07-22T12:45:26;138.50;;;130.90;;
20381;SDS011;10350;51.280;12.400;2023-07-22T12:47:52;126.57;;;119.85;;
20381;SDS011;10350;51.280;12.400;2023-07-22T12:50:18;113.85;;;107.75;;
20381;SDS011;10350;51.280;12.400;2023-07-22T12:52:44;123.90;;;117.22;;
20381;SDS011;10350;51.280;12.400;2023-07-22T12:55:10;122.40;;;115.80;;
20381;SDS011;10350;51.280;12.400;2023-07-22T12:57:36;126.93;;;120.10;;
20381;SDS011;10350;51.280;12.400;2023-07-22T13:00:02;128.60;;;121.60;;
20381;SDS011;10350;51.280;12.400;2023-07-22T13:02:31;127.95;;;121.07;;
20381;SDS011;10350;51.280;12.400;2023-07-22T13:04:57;135.05;;;127.82;;
20381;SDS011;10350;51.280;12.400;2023-07-22T13:07:23;133.20;;;126.03;;
20381;SDS011;10350;51.280;12.400;2023-07-22T13:09:50;130.07;;;123.20;;
20381;SDS011;10350;51.280;12.400;2023-07-22T13:12:18;137.00;;;129.65;;
20381;SDS011;10350;51.280;12.400;2023-07-22T13:14:45;136.98;;;129.20;;
20381;SDS011;10350;51.280;12.400;2023-07-22T13:17:11;129.00;;;122.10;;
20381;SDS011;10350;51.280;12.400;2023-07-22T13:19:37;126.85;;;120.03;;
20381;SDS011;10350;51.280;12.400;2023-07-22T13:22:03;134.25;;;127.07;;
20381;SDS011;10350;51.280;12.400;2023-07-22T13:24:29;133.23;;;126.10;;
20381;SDS011;10350;51.280;12.400;2023-07-22T13:26:55;128.57;;;121.60;;
20381;SDS011;10350;51.280;12.400;2023-07-22T13:29:21;134.60;;;127.38;;
20381;SDS011;10350;51.280;12.400;2023-07-22T13:31:47;133.32;;;126.15;;
20381;SDS011;10350;51.280;12.400;2023-07-22T13:34:13;133.00;;;125.70;;
20381;SDS011;10350;51.280;12.400;2023-07-22T13:36:40;130.53;;;123.47;;
20381;SDS011;10350;51.280;12.400;2023-07-22T13:39:06;137.23;;;129.88;;
20381;SDS011;10350;51.280;12.400;2023-07-22T13:41:32;131.63;;;124.55;;
20381;SDS011;10350;51.280;12.400;2023-07-22T13:43:58;129.50;;;122.45;;
20381;SDS011;10350;51.280;12.400;2023-07-22T13:46:24;133.73;;;126.57;;
20381;SDS011;10350;51.280;12.400;2023-07-22T13:48:50;130.18;;;123.03;;
20381;SDS011;10350;51.280;12.400;2023-07-22T13:51:15;133.25;;;126.07;;
20381;SDS011;10350;51.280;12.400;2023-07-22T13:53:41;126.18;;;119.38;;
20381;SDS011;10350;51.280;12.400;2023-07-22T13:56:08;132.93;;;125.75;;
20381;SDS011;10350;51.280;12.400;2023-07-22T13:58:34;133.95;;;126.68;;
20381;SDS011;10350;51.280;12.400;2023-07-22T14:01:00;138.20;;;130.75;;
20381;SDS011;10350;51.280;12.400;2023-07-22T14:03:25;133.55;;;126.28;;
20381;SDS011;10350;51.280;12.400;2023-07-22T14:05:51;143.75;;;135.82;;